Fort Lauderdale Hollywood International Airport
KFLL : now visible

Airfield :











YOU CAN JOIN US ON...

 
LOGIN :

Register | Disclaimer

   EN    FR    IT 

 









Legend :    VFR   Marginal VFR   IFR   Intensive IFR   Very Intensive IFR
Visi :
Ceiling :
>= 8 km
>= 3000ft
5 to 8 km
1000 to 3000 ft
1500m to 5 km
500 to 1000 ft
800 to 1500m
200 to 500 ft
< 800m
< 200 ft
Symbols :   Thunderstorms  Fog  Heavy snow  Heavy precipitations  Wind > 20 kt






- Airport Elevation : 9 ft
- IATA code : FLL


KFLL - Fort Lauderdale Hollywood International

CURRENT METAR :
  • 151753Z 24009KT 10SM FEW028 BKN150 BKN250 28/22 A2991 RMK AO2 SLP127 T02830222 10283 20239 58020

EXPIRED METARs :
  • 151653Z 21009KT 180V270 10SM FEW025 BKN150 BKN250 27/21 A2992 RMK AO2 SLP132 T02720211
  • 151553Z 23007KT 10SM FEW025 BKN150 BKN250 27/22 A2995 RMK AO2 SLP142 T02720217 $
  • 151453Z 19007KT 10SM FEW025 BKN130 BKN250 27/22 A2996 RMK AO2 SLP146 T02670222 50003 $

TAF KFLL
Valid from the 15 at 18:00 until the 17 at 00:00 UTC


151745Z 1518/1624 21009KT P6SM VCSH SCT020 BKN090 BKN250
FM151900 25009KT P6SM VCTS SCT020CB BKN050 BKN100
TEMPO 1519/1522 VRB15G25KT 3SM TSRA BKN020CB BKN040 OVC100
FM160000 26007KT P6SM VCSH SCT030 BKN050 BKN120
FM161000 29008KT P6SM FEW030 SCT050 SCT120
FM161700 33011KT P6SM FEW050 SCT250



MET'MAP, your aeronautical weather chart ! - Copyright ORBIFLY December 2007 - Disclaimer

ORBIFLY MET'MAP TEAM :

Programming & Development : Alexandra Zaïnal
Concept & Development : Baudouin d'Aumeries
Co-Development & Prog : Marc-Olivier Méhu
Technical & hardware support : Manuel Goepfert

Contact : metmap@orbifly.com




SOURCES & CREDITS :

   NOAA       Earth
Advisory